createdAt,value
2017-04-07T00:00:36.399Z,6.64
2017-04-07T00:01:45.289Z,6.64
2017-04-07T00:02:54.174Z,6.69
2017-04-07T00:04:03.104Z,6.64
2017-04-07T00:05:12.324Z,6.69
2017-04-07T00:06:22.158Z,6.67
2017-04-07T00:07:31.402Z,6.7
2017-04-07T00:08:40.291Z,6.71
2017-04-07T00:09:49.177Z,6.67
2017-04-07T00:10:58.067Z,6.77
2017-04-07T00:12:07.575Z,6.79
2017-04-07T00:13:16.463Z,6.79
2017-04-07T00:14:25.678Z,6.77
2017-04-07T00:15:34.602Z,6.87
2017-04-07T00:16:43.486Z,6.71
2017-04-07T00:17:52.523Z,6.88
2017-04-07T00:19:01.414Z,6.84
2017-04-07T00:20:10.627Z,6.92
2017-04-07T00:21:19.833Z,6.89
2017-04-07T00:22:28.725Z,6.92
2017-04-07T00:23:38.015Z,6.94
2017-04-07T00:24:46.905Z,6.91
2017-04-07T00:25:55.787Z,6.84
2017-04-07T00:27:04.995Z,6.98
2017-04-07T00:28:14.211Z,6.99
2017-04-07T00:29:23.142Z,6.89
2017-04-07T00:30:32.030Z,7.02
2017-04-07T00:31:40.922Z,6.92
2017-04-07T00:32:49.803Z,6.95
2017-04-07T00:33:58.686Z,7.02
2017-04-07T00:35:07.967Z,6.91
2017-04-07T00:36:16.855Z,7.05
2017-04-07T00:37:26.063Z,7.02
2017-04-07T00:38:35.272Z,7.02
2017-04-07T00:39:44.165Z,7.03
2017-04-07T00:40:53.623Z,7.06
2017-04-07T00:42:02.510Z,7.09
2017-04-07T00:43:11.396Z,7.05
2017-04-07T00:44:20.285Z,7.03
2017-04-07T00:45:29.198Z,7.2
2017-04-07T00:46:38.441Z,7.07
2017-04-07T00:47:47.654Z,7.1
2017-04-07T00:48:56.540Z,7.06
2017-04-07T00:50:05.759Z,7.16
2017-04-07T00:51:15.289Z,7.07
2017-04-07T00:52:24.222Z,7.2
2017-04-07T00:53:33.114Z,7.23
2017-04-07T00:54:41.998Z,7.15
2017-04-07T00:55:51.206Z,7.23
2017-04-07T00:57:00.100Z,7.21
2017-04-07T00:58:08.987Z,7.28
2017-04-07T00:59:18.519Z,7.34
2017-04-07T01:00:27.405Z,7.31
2017-04-07T01:01:36.327Z,7.32
2017-04-07T01:02:45.215Z,7.3
2017-04-07T01:03:54.247Z,7.31
2017-04-07T01:05:03.461Z,7.32
2017-04-07T01:06:12.344Z,7.43
2017-04-07T01:07:21.228Z,7.46
2017-04-07T01:08:30.441Z,7.37
2017-04-07T01:09:39.955Z,7.3
2017-04-07T01:10:48.842Z,7.37
2017-04-07T01:11:58.050Z,7.46
2017-04-07T01:13:06.949Z,7.49
2017-04-07T01:14:15.863Z,7.37
2017-04-07T01:15:25.004Z,7.46
2017-04-07T01:16:34.211Z,7.37
2017-04-07T01:17:43.101Z,7.52
2017-04-07T01:18:51.983Z,7.46
2017-04-07T01:20:00.894Z,7.53
2017-04-07T01:21:10.108Z,7.39
2017-04-07T01:22:18.989Z,7.43
2017-04-07T01:23:28.200Z,7.42
2017-04-07T01:24:37.091Z,7.45
2017-04-07T01:25:45.974Z,7.5
2017-04-07T01:26:54.859Z,7.49
2017-04-07T01:28:03.745Z,7.46
2017-04-07T01:29:12.633Z,7.46
2017-04-07T01:30:21.554Z,7.5
2017-04-07T01:31:30.438Z,7.48
2017-04-07T01:32:39.424Z,7.45
2017-04-07T01:33:48.310Z,7.42
2017-04-07T01:34:57.242Z,7.48
2017-04-07T01:36:06.454Z,7.49
2017-04-07T01:37:15.338Z,7.49
2017-04-07T01:38:24.375Z,7.58
2017-04-07T01:39:33.257Z,7.46
2017-04-07T01:40:42.145Z,7.45
2017-04-07T01:41:51.029Z,7.46
2017-04-07T01:43:00.241Z,7.46
2017-04-07T01:44:09.132Z,7.5
2017-04-07T01:45:18.019Z,7.5
2017-04-07T01:46:27.236Z,7.46
2017-04-07T01:47:36.122Z,7.57
2017-04-07T01:48:45.007Z,7.57
2017-04-07T01:49:54.371Z,7.55
2017-04-07T01:51:03.612Z,7.5
2017-04-07T01:52:12.501Z,7.64
2017-04-07T01:53:21.380Z,7.55
2017-04-07T01:54:30.264Z,7.63
2017-04-07T01:55:39.299Z,7.5
2017-04-07T01:56:48.506Z,7.5
2017-04-07T01:57:57.393Z,7.5
2017-04-07T01:59:06.279Z,7.53
2017-04-07T02:00:15.163Z,7.58
2017-04-07T02:01:24.478Z,7.57
2017-04-07T02:02:33.362Z,7.58
2017-04-07T02:03:42.243Z,7.6
2017-04-07T02:04:51.128Z,7.61
2017-04-07T02:06:00.017Z,7.55
2017-04-07T02:07:08.907Z,7.49
2017-04-07T02:08:17.791Z,7.67
2017-04-07T02:09:26.679Z,7.58
2017-04-07T02:10:35.892Z,7.55
2017-04-07T02:11:44.778Z,7.58
2017-04-07T02:12:54.388Z,7.68
2017-04-07T02:14:03.271Z,7.74
2017-04-07T02:15:12.485Z,7.67
2017-04-07T02:16:21.373Z,7.67
2017-04-07T02:17:30.271Z,7.67
2017-04-07T02:18:39.408Z,7.67
2017-04-07T02:19:48.287Z,7.79
2017-04-07T02:20:57.501Z,7.89
2017-04-07T02:22:06.716Z,7.67
2017-04-07T02:23:16.256Z,7.68
2017-04-07T02:24:25.546Z,7.82
2017-04-07T02:25:34.436Z,7.74
2017-04-07T02:26:43.321Z,7.77
2017-04-07T02:27:52.208Z,7.83
2017-04-07T02:29:01.089Z,7.68
2017-04-07T02:30:10.456Z,7.83
2017-04-07T02:31:19.345Z,7.77
2017-04-07T02:32:28.556Z,7.74
2017-04-07T02:33:37.772Z,7.86
2017-04-07T02:34:46.658Z,7.79
2017-04-07T02:35:56.519Z,7.8
2017-04-07T02:37:05.734Z,7.75
2017-04-07T02:38:14.617Z,7.86
2017-04-07T02:39:23.826Z,7.82
2017-04-07T02:40:32.720Z,7.75
2017-04-07T02:41:42.080Z,7.86
2017-04-07T02:42:50.973Z,7.85
2017-04-07T02:43:59.854Z,7.83
2017-04-07T02:45:08.757Z,7.89
2017-04-07T02:46:17.649Z,7.82
2017-04-07T02:47:26.545Z,7.93
2017-04-07T02:48:35.762Z,7.9
2017-04-07T02:49:44.649Z,7.93
2017-04-07T02:50:53.568Z,7.85
2017-04-07T02:52:02.781Z,7.86
2017-04-07T02:53:12.014Z,7.9
2017-04-07T02:54:20.921Z,7.85
2017-04-07T02:55:29.804Z,7.75
2017-04-07T02:56:39.012Z,7.85
2017-04-07T02:57:47.900Z,7.83
2017-04-07T02:58:57.207Z,7.89
2017-04-07T03:00:06.750Z,7.85
2017-04-07T03:01:15.642Z,7.86
2017-04-07T03:02:24.530Z,7.82
2017-04-07T03:03:33.748Z,7.89
2017-04-07T03:04:43.037Z,7.92
2017-04-07T03:05:52.249Z,7.85
2017-04-07T03:07:01.141Z,7.9
2017-04-07T03:08:10.680Z,7.82
2017-04-07T03:09:19.562Z,7.87
2017-04-07T03:10:28.448Z,7.89
2017-04-07T03:11:37.665Z,7.9
2017-04-07T03:12:46.553Z,7.86
2017-04-07T03:13:55.762Z,7.85
2017-04-07T03:15:04.651Z,7.87
2017-04-07T03:16:13.966Z,7.85
2017-04-07T03:17:22.856Z,7.89
2017-04-07T03:18:31.748Z,7.92
2017-04-07T03:19:40.968Z,7.89
2017-04-07T03:20:50.177Z,7.85
2017-04-07T03:21:59.164Z,7.85
2017-04-07T03:23:08.052Z,7.82
2017-04-07T03:24:16.936Z,7.71
2017-04-07T03:25:25.858Z,7.79
2017-04-07T03:26:34.757Z,7.87
2017-04-07T03:27:43.693Z,7.8
2017-04-07T03:28:52.911Z,7.83
2017-04-07T03:30:01.793Z,7.87
2017-04-07T03:31:10.686Z,7.89
2017-04-07T03:32:19.571Z,7.9
2017-04-07T03:33:28.603Z,7.85
2017-04-07T03:34:37.498Z,7.85
2017-04-07T03:35:46.382Z,7.83
2017-04-07T03:36:55.266Z,7.92
2017-04-07T03:38:04.152Z,7.83
2017-04-07T03:39:13.191Z,7.89
2017-04-07T03:40:22.103Z,7.92
2017-04-07T03:41:30.986Z,7.89
2017-04-07T03:42:40.196Z,7.87
2017-04-07T03:43:49.083Z,7.89
2017-04-07T03:44:58.342Z,7.85
2017-04-07T03:46:07.230Z,7.85
2017-04-07T03:47:17.088Z,7.85
2017-04-07T03:48:25.973Z,7.92
2017-04-07T03:49:34.859Z,7.86
2017-04-07T03:50:43.895Z,7.89
2017-04-07T03:51:53.117Z,7.83
2017-04-07T03:53:02.003Z,7.86
2017-04-07T03:54:11.537Z,7.89
2017-04-07T03:55:20.418Z,7.97
2017-04-07T03:56:30.106Z,7.89
2017-04-07T03:57:38.994Z,7.83
2017-04-07T03:58:47.889Z,7.89
2017-04-07T03:59:56.775Z,7.87
2017-04-07T04:01:05.660Z,7.95
2017-04-07T04:02:14.868Z,7.8
2017-04-07T04:03:23.752Z,7.9
2017-04-07T04:04:32.635Z,7.83
2017-04-07T04:05:41.525Z,7.89
2017-04-07T04:06:50.413Z,7.86
2017-04-07T04:07:59.406Z,7.85
2017-04-07T04:09:08.293Z,7.95
2017-04-07T04:10:17.502Z,7.86
2017-04-07T04:11:26.713Z,7.92
2017-04-07T04:12:35.597Z,7.89
2017-04-07T04:13:44.784Z,7.9
2017-04-07T04:14:54.337Z,7.82
2017-04-07T04:16:03.546Z,7.89
2017-04-07T04:17:12.428Z,7.9
2017-04-07T04:18:21.311Z,7.92
2017-04-07T04:19:30.448Z,7.86
2017-04-07T04:20:39.336Z,7.83
2017-04-07T04:21:48.548Z,7.9
2017-04-07T04:22:57.433Z,7.9
2017-04-07T04:24:06.323Z,7.85
2017-04-07T04:25:15.360Z,7.9
2017-04-07T04:26:24.246Z,7.85
2017-04-07T04:27:33.464Z,7.85
2017-04-07T04:28:42.354Z,7.86
2017-04-07T04:29:51.239Z,7.92
2017-04-07T04:31:00.503Z,7.89
2017-04-07T04:32:09.398Z,8.02
2017-04-07T04:33:18.283Z,7.87
2017-04-07T04:34:27.496Z,7.9
2017-04-07T04:35:36.390Z,7.93
2017-04-07T04:36:45.282Z,7.97
2017-04-07T04:37:54.170Z,7.97
2017-04-07T04:39:03.059Z,8.04
2017-04-07T04:40:12.273Z,7.98
2017-04-07T04:41:21.487Z,8.02
2017-04-07T04:42:30.627Z,8.1
2017-04-07T04:43:39.511Z,8.1
2017-04-07T04:44:48.719Z,8.02
2017-04-07T04:45:57.938Z,8.12
2017-04-07T04:47:06.837Z,8.1
2017-04-07T04:48:16.046Z,8.15
2017-04-07T04:49:25.290Z,8.1
2017-04-07T04:50:34.187Z,8.11
2017-04-07T04:51:43.399Z,8.12
2017-04-07T04:52:52.285Z,8.1
2017-04-07T04:54:01.175Z,8.12
2017-04-07T04:55:10.061Z,8.11
2017-04-07T04:56:18.950Z,8.12
2017-04-07T04:57:27.834Z,8.08
2017-04-07T04:58:36.868Z,8.19
2017-04-07T04:59:46.077Z,8.18
2017-04-07T05:00:54.962Z,8.15
2017-04-07T05:02:04.176Z,8.18
2017-04-07T05:03:13.058Z,8.11
2017-04-07T05:04:22.845Z,8.25
2017-04-07T05:05:31.727Z,8.19
2017-04-07T05:06:40.617Z,8.18
2017-04-07T05:07:49.528Z,8.36
2017-04-07T05:08:58.415Z,8.28
2017-04-07T05:10:07.779Z,8.37
2017-04-07T05:11:16.667Z,8.36
2017-04-07T05:12:25.556Z,8.34
2017-04-07T05:13:34.443Z,8.41
2017-04-07T05:14:43.338Z,8.33
2017-04-07T05:15:53.025Z,8.3
2017-04-07T05:17:01.954Z,8.36
2017-04-07T05:18:10.843Z,8.38
2017-04-07T05:19:19.727Z,8.4
2017-04-07T05:20:28.615Z,8.41
2017-04-07T05:21:38.092Z,8.36
2017-04-07T05:22:47.309Z,8.41
2017-04-07T05:23:56.516Z,8.33
2017-04-07T05:25:05.401Z,8.4
2017-04-07T05:26:14.291Z,8.36
2017-04-07T05:27:23.430Z,8.34
2017-04-07T05:28:32.314Z,8.36
2017-04-07T05:29:41.205Z,8.43
2017-04-07T05:30:50.098Z,8.37
2017-04-07T05:31:58.994Z,8.3
2017-04-07T05:33:08.030Z,8.43
2017-04-07T05:34:16.914Z,8.45
2017-04-07T05:35:26.123Z,8.37
2017-04-07T05:36:35.011Z,8.33
2017-04-07T05:37:43.898Z,8.3
2017-04-07T05:38:52.935Z,8.34
2017-04-07T05:40:01.823Z,8.33
2017-04-07T05:41:10.709Z,8.28
2017-04-07T05:42:19.919Z,8.26
2017-04-07T05:43:28.806Z,8.29
2017-04-07T05:44:38.318Z,8.36
2017-04-07T05:45:47.205Z,8.43
2017-04-07T05:46:56.418Z,8.44
2017-04-07T05:48:05.629Z,8.44
2017-04-07T05:49:14.843Z,8.36
2017-04-07T05:50:24.064Z,8.36
2017-04-07T05:51:32.959Z,8.38
2017-04-07T05:52:41.856Z,8.37
2017-04-07T05:53:50.744Z,8.4
2017-04-07T05:54:59.630Z,8.37
2017-04-07T05:56:08.720Z,8.34
2017-04-07T05:57:17.610Z,8.3
2017-04-07T05:58:26.495Z,8.36
2017-04-07T05:59:35.382Z,8.5
2017-04-07T06:00:44.272Z,8.36
2017-04-07T06:01:53.407Z,8.37
2017-04-07T06:03:02.297Z,8.4
2017-04-07T06:04:11.519Z,8.44
2017-04-07T06:05:20.436Z,8.38
2017-04-07T06:06:29.653Z,8.41
2017-04-07T06:07:38.797Z,8.47
2017-04-07T06:08:47.685Z,8.37
2017-04-07T06:09:56.571Z,8.45
2017-04-07T06:11:05.460Z,8.47
2017-04-07T06:12:14.348Z,8.58
2017-04-07T06:13:23.283Z,8.59
2017-04-07T06:14:32.170Z,8.48
2017-04-07T06:15:41.057Z,8.52
2017-04-07T06:16:50.268Z,8.5
2017-04-07T06:17:59.483Z,8.71
2017-04-07T06:19:08.522Z,8.58
2017-04-07T06:20:17.408Z,8.66
2017-04-07T06:21:26.296Z,8.63
2017-04-07T06:22:35.514Z,8.61
2017-04-07T06:23:44.401Z,8.7
2017-04-07T06:24:53.286Z,8.74
2017-04-07T06:26:02.177Z,8.7
2017-04-07T06:27:11.072Z,8.79
2017-04-07T06:28:19.962Z,8.79
2017-04-07T06:29:29.179Z,8.8
2017-04-07T06:30:38.269Z,8.76
2017-04-07T06:31:47.167Z,8.84
2017-04-07T06:32:56.056Z,8.86
2017-04-07T06:34:05.271Z,8.83
2017-04-07T06:35:14.159Z,8.74
2017-04-07T06:36:23.861Z,8.86
2017-04-07T06:37:32.751Z,8.98
2017-04-07T06:38:41.632Z,8.96
2017-04-07T06:39:50.517Z,8.96
2017-04-07T06:40:59.408Z,8.87
2017-04-07T06:42:08.302Z,8.92
2017-04-07T06:43:17.190Z,8.92
2017-04-07T06:44:26.074Z,8.99
2017-04-07T06:45:35.613Z,9.02
2017-04-07T06:46:44.517Z,8.94
2017-04-07T06:47:53.555Z,9.08
2017-04-07T06:49:02.483Z,9.02
2017-04-07T06:50:11.383Z,9.05
2017-04-07T06:51:20.278Z,9.05
2017-04-07T06:52:29.183Z,9.17
2017-04-07T06:53:38.395Z,9.26
2017-04-07T06:54:47.288Z,9.29
2017-04-07T06:55:56.504Z,9.2
2017-04-07T06:57:06.045Z,9.17
2017-04-07T06:58:14.942Z,9.21
2017-04-07T06:59:23.977Z,9.32
2017-04-07T07:00:33.192Z,9.33
2017-04-07T07:01:42.077Z,9.38
2017-04-07T07:02:50.969Z,9.48
2017-04-07T07:03:59.858Z,9.43
2017-04-07T07:05:09.454Z,9.48
2017-04-07T07:06:18.369Z,9.56
2017-04-07T07:07:27.257Z,9.6
2017-04-07T07:08:36.149Z,9.6
2017-04-07T07:09:45.045Z,9.65
2017-04-07T07:10:54.260Z,9.64
2017-04-07T07:12:03.150Z,9.65
2017-04-07T07:13:12.040Z,9.75
2017-04-07T07:14:20.929Z,9.72
2017-04-07T07:15:29.821Z,9.76
2017-04-07T07:16:39.236Z,9.69
2017-04-07T07:17:48.126Z,9.69
2017-04-07T07:18:57.017Z,9.64
2017-04-07T07:20:05.903Z,9.69
2017-04-07T07:21:15.117Z,9.74
2017-04-07T07:22:24.329Z,9.78
2017-04-07T07:23:33.223Z,9.81
2017-04-07T07:24:42.444Z,9.93
2017-04-07T07:25:51.669Z,9.79
2017-04-07T07:27:00.560Z,9.83
2017-04-07T07:28:09.935Z,9.91
2017-04-07T07:29:18.823Z,9.89
2017-04-07T07:30:28.041Z,9.93
2017-04-07T07:31:37.310Z,9.79
2017-04-07T07:32:46.198Z,9.84
2017-04-07T07:33:55.575Z,9.93
2017-04-07T07:35:04.786Z,9.86
2017-04-07T07:36:13.676Z,10.08
2017-04-07T07:37:22.573Z,10.11
2017-04-07T07:38:31.785Z,10.23
2017-04-07T07:39:40.730Z,10.25
2017-04-07T07:40:49.945Z,10.32
2017-04-07T07:41:59.156Z,10.38
2017-04-07T07:43:08.046Z,10.25
2017-04-07T07:44:16.935Z,10.33
2017-04-07T07:45:26.122Z,10.27
2017-04-07T07:46:35.012Z,10.26
2017-04-07T07:47:43.897Z,10.32
2017-04-07T07:48:52.797Z,10.12
2017-04-07T07:50:02.012Z,10.14
2017-04-07T07:51:11.330Z,10.14
2017-04-07T07:52:20.540Z,10.14
2017-04-07T07:53:29.430Z,10.2
2017-04-07T07:54:38.316Z,10.23
2017-04-07T07:55:47.531Z,10.27
2017-04-07T07:56:56.575Z,10.25
2017-04-07T07:58:05.467Z,10.3
2017-04-07T07:59:14.352Z,10.29
2017-04-07T08:00:23.563Z,10.36
2017-04-07T08:01:32.454Z,10.32
2017-04-07T08:02:41.823Z,10.51
2017-04-07T08:03:50.709Z,10.44
2017-04-07T08:04:59.599Z,10.42
2017-04-07T08:06:08.487Z,10.45
2017-04-07T08:07:17.373Z,10.4
2017-04-07T08:08:26.840Z,10.36
2017-04-07T08:09:35.725Z,10.36
2017-04-07T08:10:44.932Z,10.45
2017-04-07T08:11:53.824Z,10.55
2017-04-07T08:13:02.716Z,10.59
2017-04-07T08:14:12.127Z,10.73
2017-04-07T08:15:21.014Z,10.7
2017-04-07T08:16:29.907Z,10.76
2017-04-07T08:17:38.796Z,10.79
2017-04-07T08:18:47.687Z,10.82
2017-04-07T08:19:56.621Z,10.86
2017-04-07T08:21:05.536Z,10.97
2017-04-07T08:22:14.750Z,10.88
2017-04-07T08:23:23.642Z,10.97
2017-04-07T08:24:32.537Z,10.86
2017-04-07T08:25:41.675Z,10.94
2017-04-07T08:26:50.563Z,10.86
2017-04-07T08:27:59.451Z,10.84
2017-04-07T08:29:08.342Z,10.89
2017-04-07T08:30:17.561Z,10.97
2017-04-07T08:31:26.601Z,11.09
2017-04-07T08:32:35.810Z,10.99
2017-04-07T08:33:44.700Z,11.04
2017-04-07T08:34:53.588Z,11.03
2017-04-07T08:36:02.475Z,11.09
2017-04-07T08:37:11.892Z,11.15
2017-04-07T08:38:21.111Z,11.04
2017-04-07T08:39:30.005Z,11.19
2017-04-07T08:40:38.897Z,11.19
2017-04-07T08:41:47.790Z,11.27
2017-04-07T08:42:57.152Z,11.28
2017-04-07T08:44:06.043Z,11.47
2017-04-07T08:45:15.258Z,11.55
2017-04-07T08:46:24.473Z,11.55
2017-04-07T08:47:33.687Z,11.57
2017-04-07T08:48:42.950Z,11.49
2017-04-07T08:49:51.842Z,11.43
2017-04-07T08:51:00.731Z,11.47
2017-04-07T08:52:09.626Z,11.54
2017-04-07T08:53:18.842Z,11.57
2017-04-07T08:54:28.107Z,11.72
2017-04-07T08:55:37.007Z,11.64
2017-04-07T08:56:46.218Z,11.57
2017-04-07T08:57:55.109Z,11.58
2017-04-07T08:59:03.998Z,11.69
2017-04-07T09:00:13.365Z,11.8
2017-04-07T09:01:22.578Z,11.75
2017-04-07T09:02:31.468Z,11.76
2017-04-07T09:03:40.683Z,11.91
2017-04-07T09:04:49.572Z,12.01
2017-04-07T09:05:59.043Z,12.1
2017-04-07T09:07:08.271Z,12.24
2017-04-07T09:08:17.158Z,12.34
2017-04-07T09:09:26.377Z,12.23
2017-04-07T09:10:35.273Z,12.41
2017-04-07T09:11:44.358Z,12.47
2017-04-07T09:12:53.251Z,12.6
2017-04-07T09:14:02.142Z,12.59
2017-04-07T09:15:11.356Z,12.68
2017-04-07T09:16:20.248Z,12.68
2017-04-07T09:17:29.285Z,12.67
2017-04-07T09:18:38.506Z,12.78
2017-04-07T09:19:47.393Z,12.68
2017-04-07T09:20:56.612Z,12.67
2017-04-07T09:22:05.828Z,12.75
2017-04-07T09:23:15.419Z,12.79
2017-04-07T09:24:24.312Z,12.93
2017-04-07T09:25:33.200Z,13.01
2017-04-07T09:26:42.094Z,13.04
2017-04-07T09:27:50.996Z,13.04
2017-04-07T09:29:00.180Z,13.07
2017-04-07T09:30:09.435Z,13.07
2017-04-07T09:31:18.660Z,13.15
2017-04-07T09:32:27.559Z,13.15
2017-04-07T09:33:36.450Z,13.28
2017-04-07T09:34:45.966Z,13.36
2017-04-07T09:35:54.856Z,13.25
2017-04-07T09:37:03.750Z,13.26
2017-04-07T09:38:12.647Z,13.26
2017-04-07T09:39:21.546Z,13.14
2017-04-07T09:40:30.541Z,13.05
2017-04-07T09:41:39.430Z,13.11
2017-04-07T09:42:48.323Z,13.05
2017-04-07T09:43:57.546Z,13.14
2017-04-07T09:45:06.441Z,13.15
2017-04-07T09:46:15.784Z,13.2
2017-04-07T09:47:25.000Z,13.36
2017-04-07T09:48:34.218Z,13.38
2017-04-07T09:49:43.112Z,13.36
2017-04-07T09:50:52.325Z,13.32
2017-04-07T09:52:01.267Z,13.51
2017-04-07T09:53:10.505Z,13.45
2017-04-07T09:54:19.395Z,13.46
2017-04-07T09:55:28.287Z,13.52
2017-04-07T09:56:37.205Z,13.6
2017-04-07T09:57:46.145Z,13.69
2017-04-07T09:58:55.044Z,13.64
2017-04-07T10:00:04.269Z,13.75
2017-04-07T10:01:13.161Z,13.81
2017-04-07T10:02:22.054Z,13.71
2017-04-07T10:03:31.095Z,13.77
2017-04-07T10:04:39.995Z,13.7
2017-04-07T10:05:48.886Z,13.78
2017-04-07T10:06:57.782Z,13.7
2017-04-07T10:08:06.680Z,13.52
2017-04-07T10:09:16.193Z,13.55
2017-04-07T10:10:25.086Z,13.55
2017-04-07T10:11:33.974Z,13.42
2017-04-07T10:12:42.870Z,13.54
2017-04-07T10:13:52.086Z,13.51
2017-04-07T10:15:01.706Z,13.54
2017-04-07T10:16:10.599Z,13.49
2017-04-07T10:17:19.489Z,13.48
2017-04-07T10:18:28.388Z,13.52
2017-04-07T10:19:37.317Z,13.6
2017-04-07T10:20:46.907Z,13.51
2017-04-07T10:21:55.803Z,13.48
2017-04-07T10:23:05.352Z,13.45
2017-04-07T10:24:14.248Z,13.6
2017-04-07T10:25:23.139Z,13.48
2017-04-07T10:26:32.031Z,13.46
2017-04-07T10:27:40.927Z,13.48
2017-04-07T10:28:49.818Z,13.49
2017-04-07T10:29:58.707Z,13.54
2017-04-07T10:31:07.938Z,13.51
2017-04-07T10:32:17.031Z,13.48
2017-04-07T10:33:26.244Z,13.51
2017-04-07T10:34:35.458Z,13.38
2017-04-07T10:35:44.354Z,13.32
2017-04-07T10:36:53.569Z,13.33
2017-04-07T10:38:02.462Z,13.33
2017-04-07T10:39:11.356Z,13.38
2017-04-07T10:40:20.295Z,13.33
2017-04-07T10:41:29.187Z,13.3
2017-04-07T10:42:38.085Z,13.32
2017-04-07T10:43:47.446Z,13.3
2017-04-07T10:44:56.340Z,13.29
2017-04-07T10:46:05.559Z,13.25
2017-04-07T10:47:14.485Z,13.26
2017-04-07T10:48:23.375Z,13.29
2017-04-07T10:49:32.670Z,13.1
2017-04-07T10:50:41.559Z,13.22
2017-04-07T10:51:51.106Z,13.17
2017-04-07T10:52:59.997Z,13.12
2017-04-07T10:54:08.889Z,13.15
2017-04-07T10:55:17.831Z,13.11
2017-04-07T10:56:26.724Z,13.14
2017-04-07T10:57:35.953Z,13.12
2017-04-07T10:58:45.168Z,13.28
2017-04-07T10:59:54.057Z,13.26
2017-04-07T11:01:03.100Z,13.38
2017-04-07T11:02:12.324Z,13.28
2017-04-07T11:03:21.216Z,13.32
2017-04-07T11:04:30.432Z,13.29
2017-04-07T11:05:39.644Z,13.3
2017-04-07T11:06:48.691Z,13.29
2017-04-07T11:07:57.594Z,13.26
2017-04-07T11:09:07.138Z,13.28
2017-04-07T11:10:16.027Z,13.11
2017-04-07T11:11:24.927Z,13.14
2017-04-07T11:12:34.065Z,13.14
2017-04-07T11:13:42.951Z,13.11
2017-04-07T11:14:51.854Z,13.19
2017-04-07T11:16:00.748Z,13.28
2017-04-07T11:17:09.649Z,13.32
2017-04-07T11:18:18.916Z,13.36
2017-04-07T11:19:28.130Z,13.33
2017-04-07T11:20:37.346Z,13.39
2017-04-07T11:21:46.236Z,13.33
2017-04-07T11:22:55.776Z,13.36
2017-04-07T11:24:04.915Z,13.33
2017-04-07T11:25:13.808Z,13.32
2017-04-07T11:26:22.701Z,13.48
2017-04-07T11:27:31.589Z,13.48
2017-04-07T11:28:40.484Z,13.46
2017-04-07T11:29:49.521Z,13.41
2017-04-07T11:30:58.739Z,13.48
2017-04-07T11:32:07.629Z,13.55
2017-04-07T11:33:16.520Z,13.59
2017-04-07T11:34:25.413Z,13.57
2017-04-07T11:35:34.460Z,13.62
2017-04-07T11:36:43.355Z,13.73
2017-04-07T11:37:52.571Z,13.71
2017-04-07T11:39:01.812Z,13.71
2017-04-07T11:40:10.705Z,13.79
2017-04-07T11:41:19.649Z,13.71
2017-04-07T11:42:28.544Z,13.77
2017-04-07T11:43:37.436Z,13.71
2017-04-07T11:44:46.324Z,13.75
2017-04-07T11:45:55.221Z,13.78
2017-04-07T11:47:04.361Z,13.89
2017-04-07T11:48:13.587Z,13.73
2017-04-07T11:49:22.477Z,13.71
2017-04-07T11:50:31.368Z,13.84
2017-04-07T11:51:40.260Z,13.85
2017-04-07T11:52:49.579Z,13.88
2017-04-07T11:53:58.468Z,13.99
2017-04-07T11:55:08.339Z,13.97
2017-04-07T11:56:17.232Z,13.79
2017-04-07T11:57:26.125Z,13.92
2017-04-07T11:58:35.492Z,13.99
2017-04-07T11:59:44.382Z,13.85
2017-04-07T12:00:53.599Z,14.02
2017-04-07T12:02:02.827Z,14.1
2017-04-07T12:03:11.721Z,14.15
2017-04-07T12:04:21.044Z,14.36
2017-04-07T12:05:30.266Z,14.39
2017-04-07T12:06:39.162Z,14.29
2017-04-07T12:07:48.054Z,14.47
2017-04-07T12:08:56.949Z,14.52
2017-04-07T12:10:06.224Z,14.51
2017-04-07T12:11:15.117Z,14.58
2017-04-07T12:12:24.017Z,14.58
2017-04-07T12:13:32.911Z,14.45
2017-04-07T12:14:41.810Z,14.47
2017-04-07T12:15:50.776Z,14.51
2017-04-07T12:17:00.334Z,14.51
2017-04-07T12:18:10.209Z,14.52
2017-04-07T12:19:19.106Z,14.29
2017-04-07T12:20:28.323Z,14.33
2017-04-07T12:21:37.377Z,14.42
2017-04-07T12:22:46.600Z,14.35
2017-04-07T12:23:55.827Z,14.51
2017-04-07T12:25:04.763Z,14.45
2017-04-07T12:26:13.659Z,14.54
2017-04-07T12:27:22.707Z,14.5
2017-04-07T12:28:32.258Z,14.45
2017-04-07T12:29:41.482Z,14.54
2017-04-07T12:30:50.376Z,14.58
2017-04-07T12:31:59.280Z,14.52
2017-04-07T12:33:09.299Z,14.6
2017-04-07T12:34:18.529Z,14.6
2017-04-07T12:35:27.750Z,14.54
2017-04-07T12:36:36.965Z,14.52
2017-04-07T12:37:45.861Z,14.37
2017-04-07T12:38:55.190Z,14.35
2017-04-07T12:40:04.417Z,14.25
2017-04-07T12:41:13.313Z,14.35
2017-04-07T12:42:22.533Z,14.37
2017-04-07T12:43:32.085Z,14.46
2017-04-07T12:44:41.814Z,14.58
2017-04-07T12:45:51.360Z,14.57
2017-04-07T12:47:00.258Z,14.57
2017-04-07T12:48:09.475Z,14.62
2017-04-07T12:49:18.693Z,14.55
2017-04-07T12:50:28.016Z,14.55
2017-04-07T12:51:36.908Z,14.61
2017-04-07T12:52:45.798Z,14.6
2017-04-07T12:53:55.016Z,14.57
2017-04-07T12:55:03.915Z,14.54
2017-04-07T12:56:12.962Z,14.46
2017-04-07T12:57:21.858Z,14.45
2017-04-07T12:58:31.073Z,14.54
2017-04-07T12:59:39.971Z,14.6
2017-04-07T13:00:49.190Z,14.45
2017-04-07T13:01:58.393Z,14.54
2017-04-07T13:03:07.947Z,14.55
2017-04-07T13:04:17.502Z,14.58
2017-04-07T13:05:26.752Z,14.61
2017-04-07T13:06:36.304Z,14.77
2017-04-07T13:07:46.328Z,14.7
2017-04-07T13:08:55.224Z,14.68
2017-04-07T13:10:04.443Z,14.77
2017-04-07T13:11:13.344Z,14.62
2017-04-07T13:12:22.569Z,14.61
2017-04-07T13:13:31.842Z,14.58
2017-04-07T13:14:41.061Z,14.64
2017-04-07T13:15:49.959Z,14.7
2017-04-07T13:16:58.857Z,14.75
2017-04-07T13:18:07.752Z,14.83
2017-04-07T13:19:17.017Z,14.81
2017-04-07T13:20:26.240Z,14.64
2017-04-07T13:21:35.137Z,14.51
2017-04-07T13:22:44.027Z,14.68
2017-04-07T13:23:53.247Z,14.64
2017-04-07T13:25:02.567Z,14.73
2017-04-07T13:26:11.466Z,14.78
2017-04-07T13:27:20.366Z,14.65
2017-04-07T13:28:29.581Z,14.77
2017-04-07T13:29:38.797Z,14.64
2017-04-07T13:30:48.093Z,14.89
2017-04-07T13:31:56.986Z,15.01
2017-04-07T13:33:05.880Z,15.07
2017-04-07T13:34:15.105Z,15.11
2017-04-07T13:35:24.652Z,14.99
2017-04-07T13:36:33.748Z,15.11
2017-04-07T13:37:43.289Z,15.28
2017-04-07T13:38:52.840Z,15.27
2017-04-07T13:40:02.062Z,15.23
2017-04-07T13:41:10.958Z,15.32
2017-04-07T13:42:20.106Z,15.21
2017-04-07T13:43:29.028Z,15.13
2017-04-07T13:44:38.569Z,15.14
2017-04-07T13:45:47.464Z,14.89
2017-04-07T13:46:56.685Z,14.77
2017-04-07T13:48:06.426Z,14.98
2017-04-07T13:49:15.645Z,15.1
2017-04-07T13:50:24.538Z,15.13
2017-04-07T13:51:33.431Z,15.28
2017-04-07T13:52:42.325Z,15.23
2017-04-07T13:53:51.697Z,14.98
2017-04-07T13:55:00.925Z,14.92
2017-04-07T13:56:10.147Z,14.91
2017-04-07T13:57:19.044Z,14.81
2017-04-07T13:58:28.278Z,14.8
2017-04-07T13:59:37.438Z,14.68
2017-04-07T14:00:46.335Z,14.7
2017-04-07T14:01:55.226Z,14.83
2017-04-07T14:03:04.775Z,14.84
2017-04-07T14:04:14.718Z,14.86
2017-04-07T14:05:24.082Z,15.01
2017-04-07T14:06:33.312Z,14.96
2017-04-07T14:07:42.534Z,14.92
2017-04-07T14:08:51.432Z,14.77
2017-04-07T14:10:00.330Z,14.64
2017-04-07T14:11:09.702Z,14.78
2017-04-07T14:12:18.594Z,14.72
2017-04-07T14:13:27.820Z,14.89
2017-04-07T14:14:36.718Z,14.81
2017-04-07T14:15:45.942Z,14.7
2017-04-07T14:16:54.985Z,14.57
2017-04-07T14:18:03.886Z,14.78
2017-04-07T14:19:13.110Z,14.69
2017-04-07T14:20:22.340Z,14.72
2017-04-07T14:21:31.563Z,14.58
2017-04-07T14:22:40.611Z,14.51
2017-04-07T14:23:49.502Z,14.58
2017-04-07T14:24:58.392Z,14.6
2017-04-07T14:26:07.286Z,14.55
2017-04-07T14:27:16.509Z,14.55
2017-04-07T14:28:25.878Z,14.52
2017-04-07T14:29:34.771Z,14.52
2017-04-07T14:30:43.660Z,14.42
2017-04-07T14:31:52.879Z,14.57
2017-04-07T14:33:01.776Z,14.46
2017-04-07T14:34:11.471Z,14.43
2017-04-07T14:35:20.366Z,14.33
2017-04-07T14:36:29.584Z,14.33
2017-04-07T14:37:39.133Z,14.45
2017-04-07T14:38:48.352Z,14.45
2017-04-07T14:39:57.295Z,14.29
2017-04-07T14:41:06.187Z,14.24
2017-04-07T14:42:15.732Z,14.32
2017-04-07T14:43:24.626Z,14.22
2017-04-07T14:44:33.522Z,14.2
2017-04-07T14:45:42.752Z,14.09
2017-04-07T14:46:51.643Z,14.15
2017-04-07T14:48:00.537Z,14.4
2017-04-07T14:49:09.429Z,14.17
2017-04-07T14:50:18.354Z,14.24
2017-04-07T14:51:27.573Z,14.28
2017-04-07T14:52:37.112Z,14.18
2017-04-07T14:53:46.334Z,14.21
2017-04-07T14:54:55.227Z,14.18
2017-04-07T14:56:04.120Z,14.27
2017-04-07T14:57:13.864Z,14.2
2017-04-07T14:58:23.084Z,14.15
2017-04-07T14:59:32.628Z,14.18
2017-04-07T15:00:41.528Z,14.14
2017-04-07T15:01:50.429Z,14.09
2017-04-07T15:02:59.369Z,13.89
2017-04-07T15:04:08.583Z,14.07
2017-04-07T15:05:18.459Z,13.85
2017-04-07T15:06:27.393Z,13.89
2017-04-07T15:07:36.289Z,13.92